Regional Weather

 

KMKL - Jackson, TN, USA
Distance from station: WNW 50mi, 81km
Updated: Thu, Feb-22-2018 10:45am CST
Overcast
Overcast
 Wind from calm
Wind: Calm
Temperature: 48°F , 9°C
Dew Point: 48°F , 9°C
Humidity: 100%
Barometer: 30.39 inHg , 1029.1 hPa
Clouds: Overcast
Visibility: 10 miles , 16 km
Cloud details: Overcast 500 ft
2018/02/22 16:45 KMKL 221645Z 00000KT 10SM OVC005 09/09 A3039 RMK AO2 T00940089
KMEM - Memphis, TN, USA
Distance from station: W 108mi, 173km
Updated: Thu, Feb-22-2018 10:46am CST
Light drizzle, Mist, Overcast
Light drizzle, Mist, Overcast
 Wind from NE
Wind: NE 5 mph , 7 km/h
Temperature: 46°F , 8°C
Wind Chill: 44°F , 7°C
Dew Point: 45°F , 7°C
Humidity: 93%
Barometer: 30.38 inHg , 1028.8 hPa
Summary: Light drizzle, Mist
Clouds: Overcast
Visibility: 2 miles , 3 km
Cloud details: Overcast 400 ft
2018/02/22 16:46 KMEM 221646Z 05004KT 2SM -DZ BR OVC004 08/07 A3038 RMK AO2 SFC VIS 6 P0001 T00780067 $
 
KBNA - Nashville, TN, USA
Distance from station: NE 97mi, 157km
Updated: Thu, Feb-22-2018 9:53am CST
Overcast
Overcast
 Wind from NW
Wind: NW 6 mph , 9 km/h
Temperature: 57°F , 14°C
Dew Point: 54°F , 12°C
Humidity: 88%
Barometer: 30.38 inHg , 1028.8 hPa
Clouds: Overcast
Visibility: 10 miles , 16 km
Cloud details: Overcast 600 ft
2018/02/22 15:53 KBNA 221553Z 31005KT 10SM OVC006 14/12 A3038 RMK AO2 SLP285 T01390122
KCKV - Clarksville, TN, USA
Distance from station: NNE 99mi, 159km
Updated: Thu, Feb-22-2018 10:28am CST
Mist, Overcast
Mist, Overcast
 Wind from SSE
Wind: SSE 5 mph , 7 km/h
Temperature: 52°F , 11°C
Dew Point: 48°F , 9°C
Humidity: 88%
Barometer: 30.37 inHg , 1028.4 hPa
Summary: Mist
Clouds: Overcast
Visibility: 3 miles , 5 km
Cloud details: Overcast 300 ft
2018/02/22 16:28 KCKV 221628Z AUTO 15004KT 3SM BR OVC003 11/09 A3037 RMK AO2 T01060089
 
KPAH - Paducah, KY, USA
Distance from station: NNW 128mi, 205km
Updated: Thu, Feb-22-2018 9:53am CST
Mist, Overcast
Mist, Overcast
 Wind from NE
Wind: NE 6 mph , 9 km/h
Temperature: 45°F , 7°C
Wind Chill: 42°F , 6°C
Dew Point: 43°F , 6°C
Humidity: 93%
Barometer: 30.36 inHg , 1028.1 hPa
Summary: Mist
Clouds: Overcast
Visibility: 3 miles , 5 km
Cloud details: Overcast 200 ft
2018/02/22 15:53 KPAH 221553Z 05005KT 3SM BR OVC002 07/06 A3036 RMK AO2 SLP282 T00720061 $
KCHA - Chattanooga, TN, USA
Distance from station: E 165mi, 265km
Updated: Thu, Feb-22-2018 9:53am CST
Mostly cloudy
Mostly cloudy
 Wind from SE
Wind: SE 7 mph , 11 km/h
Temperature: 72°F , 22°C
Dew Point: 63°F , 17°C
Humidity: 73%
Barometer: 30.41 inHg , 1029.8 hPa
Clouds: Mostly cloudy
Visibility: 10 miles , 16 km
Cloud details: Mostly cloudy 2000 ft
Mostly cloudy 2500 ft
Mostly cloudy 11000 ft
Mostly cloudy 25000 ft
2018/02/22 15:53 KCHA 221553Z 14006KT 10SM BKN020 BKN025 BKN110 BKN250 22/17 A3041 RMK AO2 SLP290 T02220167
 
KTYS - Knoxville, TN, USA
Distance from station: E 234mi, 377km
Updated: Thu, Feb-22-2018 9:53am CST
Light rain, Mostly cloudy
Light rain, Mostly cloudy
 Wind from SSW
Wind: SSW 18 mph , 30 km/h
Temperature: 72°F , 22°C
Dew Point: 63°F , 17°C
Humidity: 73%
Barometer: 30.39 inHg , 1029.1 hPa
Summary: Light rain
Clouds: Mostly cloudy
Visibility: 10 miles , 16 km
Cloud details: Few Clouds 4400 ft
Mostly cloudy 6000 ft
Mostly cloudy 20000 ft
2018/02/22 15:53 KTYS 221553Z 21016KT 10SM -RA FEW044 BKN060 BKN200 22/17 A3039 RMK AO2 RAB32 SLP282 P0000 T02220167
KLIT - Little Rock, AR, USA
Distance from station: W 240mi, 386km
Updated: Thu, Feb-22-2018 9:53am CST
Overcast
Overcast
 Wind from NE
Wind: NE 8 mph , 13 km/h
Temperature: 43°F , 6°C
Wind Chill: 38°F , 3°C
Dew Point: 43°F , 6°C
Humidity: 100%
Barometer: 30.37 inHg , 1028.4 hPa
Clouds: Overcast
Visibility: 7 miles , 11 km
Cloud details: Overcast 700 ft
2018/02/22 15:53 KLIT 221553Z 04007KT 7SM OVC007 06/06 A3037 RMK AO2 SLP286 T00560056

Refresh Page for latest data.